sensor_id;sensor_type;location;lat;lon;timestamp;temperature;humidity
18260;DHT22;9256;52.236;5.712;2023-08-20T00:01:22;17.60;99.90
18260;DHT22;9256;52.236;5.712;2023-08-20T00:03:51;17.60;99.90
18260;DHT22;9256;52.236;5.712;2023-08-20T00:06:20;17.70;99.90
18260;DHT22;9256;52.236;5.712;2023-08-20T00:08:48;17.60;99.90
18260;DHT22;9256;52.236;5.712;2023-08-20T00:11:15;17.60;99.90
18260;DHT22;9256;52.236;5.712;2023-08-20T00:13:42;17.60;99.90
18260;DHT22;9256;52.236;5.712;2023-08-20T00:16:10;17.70;99.90
18260;DHT22;9256;52.236;5.712;2023-08-20T00:18:38;17.60;99.90
18260;DHT22;9256;52.236;5.712;2023-08-20T00:21:05;17.60;99.90
18260;DHT22;9256;52.236;5.712;2023-08-20T00:23:35;17.60;99.90
18260;DHT22;9256;52.236;5.712;2023-08-20T00:26:03;17.60;99.90
18260;DHT22;9256;52.236;5.712;2023-08-20T00:28:30;17.50;99.90
18260;DHT22;9256;52.236;5.712;2023-08-20T00:30:59;17.50;99.90
18260;DHT22;9256;52.236;5.712;2023-08-20T00:33:26;17.50;99.90
18260;DHT22;9256;52.236;5.712;2023-08-20T00:35:53;17.60;99.90
18260;DHT22;9256;52.236;5.712;2023-08-20T00:38:20;17.50;99.90
18260;DHT22;9256;52.236;5.712;2023-08-20T00:40:48;17.50;99.90
18260;DHT22;9256;52.236;5.712;2023-08-20T00:43:15;17.50;99.90
18260;DHT22;9256;52.236;5.712;2023-08-20T00:45:42;17.50;99.90
18260;DHT22;9256;52.236;5.712;2023-08-20T00:48:10;17.50;99.90
18260;DHT22;9256;52.236;5.712;2023-08-20T00:50:38;17.50;99.90
18260;DHT22;9256;52.236;5.712;2023-08-20T00:53:06;17.50;99.90
18260;DHT22;9256;52.236;5.712;2023-08-20T00:55:34;17.50;99.90
18260;DHT22;9256;52.236;5.712;2023-08-20T00:58:04;17.30;99.90
18260;DHT22;9256;52.236;5.712;2023-08-20T01:00:31;17.20;99.90
18260;DHT22;9256;52.236;5.712;2023-08-20T01:02:58;17.20;99.90
18260;DHT22;9256;52.236;5.712;2023-08-20T01:05:25;17.20;99.90
18260;DHT22;9256;52.236;5.712;2023-08-20T01:08:00;17.30;99.90
18260;DHT22;9256;52.236;5.712;2023-08-20T01:10:38;17.30;99.90
18260;DHT22;9256;52.236;5.712;2023-08-20T01:13:08;17.40;99.90
18260;DHT22;9256;52.236;5.712;2023-08-20T01:15:35;17.50;99.90
18260;DHT22;9256;52.236;5.712;2023-08-20T01:18:02;17.40;99.90
18260;DHT22;9256;52.236;5.712;2023-08-20T01:20:33;17.30;99.90
18260;DHT22;9256;52.236;5.712;2023-08-20T01:23:19;17.40;99.90
18260;DHT22;9256;52.236;5.712;2023-08-20T01:26:05;17.50;99.90
18260;DHT22;9256;52.236;5.712;2023-08-20T01:28:36;17.50;99.90
18260;DHT22;9256;52.236;5.712;2023-08-20T01:31:05;17.50;99.90
18260;DHT22;9256;52.236;5.712;2023-08-20T01:33:32;17.50;99.90
18260;DHT22;9256;52.236;5.712;2023-08-20T01:36:00;17.40;99.90
18260;DHT22;9256;52.236;5.712;2023-08-20T01:38:27;17.30;99.90
18260;DHT22;9256;52.236;5.712;2023-08-20T01:40:54;17.40;99.90
18260;DHT22;9256;52.236;5.712;2023-08-20T01:43:21;17.30;99.90
18260;DHT22;9256;52.236;5.712;2023-08-20T01:45:50;17.30;99.90
18260;DHT22;9256;52.236;5.712;2023-08-20T01:48:17;17.30;99.90
18260;DHT22;9256;52.236;5.712;2023-08-20T01:50:43;17.40;99.90
18260;DHT22;9256;52.236;5.712;2023-08-20T01:53:11;17.50;99.90
18260;DHT22;9256;52.236;5.712;2023-08-20T01:55:38;17.50;99.90
18260;DHT22;9256;52.236;5.712;2023-08-20T01:58:05;17.40;99.90
18260;DHT22;9256;52.236;5.712;2023-08-20T02:00:32;17.40;99.90
18260;DHT22;9256;52.236;5.712;2023-08-20T02:03:00;17.30;99.90
18260;DHT22;9256;52.236;5.712;2023-08-20T02:05:27;17.30;99.90
18260;DHT22;9256;52.236;5.712;2023-08-20T02:07:54;17.20;99.90
18260;DHT22;9256;52.236;5.712;2023-08-20T02:10:21;17.10;99.90
18260;DHT22;9256;52.236;5.712;2023-08-20T02:12:48;17.20;99.90
18260;DHT22;9256;52.236;5.712;2023-08-20T02:15:15;17.20;99.90
18260;DHT22;9256;52.236;5.712;2023-08-20T02:17:42;17.10;99.90
18260;DHT22;9256;52.236;5.712;2023-08-20T02:20:11;17.10;99.90
18260;DHT22;9256;52.236;5.712;2023-08-20T02:22:38;17.10;99.90
18260;DHT22;9256;52.236;5.712;2023-08-20T02:25:05;17.00;99.90
18260;DHT22;9256;52.236;5.712;2023-08-20T02:27:32;17.00;99.90
18260;DHT22;9256;52.236;5.712;2023-08-20T02:29:59;16.90;99.90
18260;DHT22;9256;52.236;5.712;2023-08-20T02:32:26;16.90;99.90
18260;DHT22;9256;52.236;5.712;2023-08-20T02:34:53;16.90;99.90
18260;DHT22;9256;52.236;5.712;2023-08-20T02:37:22;16.90;99.90
18260;DHT22;9256;52.236;5.712;2023-08-20T02:39:48;16.90;99.90
18260;DHT22;9256;52.236;5.712;2023-08-20T02:42:15;16.90;99.90
18260;DHT22;9256;52.236;5.712;2023-08-20T02:44:42;16.60;99.90
18260;DHT22;9256;52.236;5.712;2023-08-20T02:47:09;16.70;99.90
18260;DHT22;9256;52.236;5.712;2023-08-20T02:49:36;16.70;99.90
18260;DHT22;9256;52.236;5.712;2023-08-20T02:52:03;16.50;99.90
18260;DHT22;9256;52.236;5.712;2023-08-20T02:54:32;16.50;99.90
18260;DHT22;9256;52.236;5.712;2023-08-20T02:56:59;16.40;99.90
18260;DHT22;9256;52.236;5.712;2023-08-20T02:59:26;16.50;99.90
18260;DHT22;9256;52.236;5.712;2023-08-20T03:01:53;16.60;99.90
18260;DHT22;9256;52.236;5.712;2023-08-20T03:04:19;16.70;99.90
18260;DHT22;9256;52.236;5.712;2023-08-20T03:06:46;16.70;99.90
18260;DHT22;9256;52.236;5.712;2023-08-20T03:09:13;16.70;99.90
18260;DHT22;9256;52.236;5.712;2023-08-20T03:11:42;16.60;99.90
18260;DHT22;9256;52.236;5.712;2023-08-20T03:14:09;16.60;99.90
18260;DHT22;9256;52.236;5.712;2023-08-20T03:16:35;16.40;99.90
18260;DHT22;9256;52.236;5.712;2023-08-20T03:19:03;16.30;99.90
18260;DHT22;9256;52.236;5.712;2023-08-20T03:21:30;16.30;99.90
18260;DHT22;9256;52.236;5.712;2023-08-20T03:23:57;16.30;99.90
18260;DHT22;9256;52.236;5.712;2023-08-20T03:26:24;16.30;99.90
18260;DHT22;9256;52.236;5.712;2023-08-20T03:28:52;16.40;99.90
18260;DHT22;9256;52.236;5.712;2023-08-20T03:31:19;16.30;99.90
18260;DHT22;9256;52.236;5.712;2023-08-20T03:33:46;16.40;99.90
18260;DHT22;9256;52.236;5.712;2023-08-20T03:36:13;16.30;99.90
18260;DHT22;9256;52.236;5.712;2023-08-20T03:38:40;16.30;99.90
18260;DHT22;9256;52.236;5.712;2023-08-20T03:41:07;16.30;99.90
18260;DHT22;9256;52.236;5.712;2023-08-20T03:43:34;16.00;99.90
18260;DHT22;9256;52.236;5.712;2023-08-20T03:46:02;15.90;99.90
18260;DHT22;9256;52.236;5.712;2023-08-20T03:48:29;15.90;99.90
18260;DHT22;9256;52.236;5.712;2023-08-20T03:50:56;16.10;99.90
18260;DHT22;9256;52.236;5.712;2023-08-20T03:53:23;16.10;99.90
18260;DHT22;9256;52.236;5.712;2023-08-20T03:55:50;16.20;99.90
18260;DHT22;9256;52.236;5.712;2023-08-20T03:58:17;16.10;99.90
18260;DHT22;9256;52.236;5.712;2023-08-20T04:00:44;16.20;99.90
18260;DHT22;9256;52.236;5.712;2023-08-20T04:03:13;16.20;99.90
18260;DHT22;9256;52.236;5.712;2023-08-20T04:05:40;16.20;99.90
18260;DHT22;9256;52.236;5.712;2023-08-20T04:08:07;16.10;99.90
18260;DHT22;9256;52.236;5.712;2023-08-20T04:10:34;16.00;99.90
18260;DHT22;9256;52.236;5.712;2023-08-20T04:13:01;16.00;99.90
18260;DHT22;9256;52.236;5.712;2023-08-20T04:15:28;16.10;99.90
18260;DHT22;9256;52.236;5.712;2023-08-20T04:17:55;16.20;99.90
18260;DHT22;9256;52.236;5.712;2023-08-20T04:20:23;16.20;99.90
18260;DHT22;9256;52.236;5.712;2023-08-20T04:22:50;16.20;99.90
18260;DHT22;9256;52.236;5.712;2023-08-20T04:25:17;16.20;99.90
18260;DHT22;9256;52.236;5.712;2023-08-20T04:27:44;16.20;99.90
18260;DHT22;9256;52.236;5.712;2023-08-20T04:30:11;16.20;99.90
18260;DHT22;9256;52.236;5.712;2023-08-20T04:32:38;16.20;99.90
18260;DHT22;9256;52.236;5.712;2023-08-20T04:35:06;16.20;99.90
18260;DHT22;9256;52.236;5.712;2023-08-20T04:37:35;16.10;99.90
18260;DHT22;9256;52.236;5.712;2023-08-20T04:40:02;16.10;99.90
18260;DHT22;9256;52.236;5.712;2023-08-20T04:42:30;16.00;99.90
18260;DHT22;9256;52.236;5.712;2023-08-20T04:44:57;16.00;99.90
18260;DHT22;9256;52.236;5.712;2023-08-20T04:47:24;16.10;99.90
18260;DHT22;9256;52.236;5.712;2023-08-20T04:49:51;16.10;99.90
18260;DHT22;9256;52.236;5.712;2023-08-20T04:52:18;16.10;99.90
18260;DHT22;9256;52.236;5.712;2023-08-20T04:54:47;16.20;99.90
18260;DHT22;9256;52.236;5.712;2023-08-20T04:57:14;16.20;99.90
18260;DHT22;9256;52.236;5.712;2023-08-20T04:59:41;16.10;99.90
18260;DHT22;9256;52.236;5.712;2023-08-20T05:02:10;16.20;99.90
18260;DHT22;9256;52.236;5.712;2023-08-20T05:04:38;16.20;99.90
18260;DHT22;9256;52.236;5.712;2023-08-20T05:07:05;16.20;99.90
18260;DHT22;9256;52.236;5.712;2023-08-20T05:09:32;16.20;99.90
18260;DHT22;9256;52.236;5.712;2023-08-20T05:12:01;16.30;99.90
18260;DHT22;9256;52.236;5.712;2023-08-20T05:14:28;16.30;99.90
18260;DHT22;9256;52.236;5.712;2023-08-20T05:16:54;16.40;99.90
18260;DHT22;9256;52.236;5.712;2023-08-20T05:19:21;16.40;99.90
18260;DHT22;9256;52.236;5.712;2023-08-20T05:21:48;16.50;99.90
18260;DHT22;9256;52.236;5.712;2023-08-20T05:24:15;16.60;99.90
18260;DHT22;9256;52.236;5.712;2023-08-20T05:26:42;16.70;99.90
18260;DHT22;9256;52.236;5.712;2023-08-20T05:29:10;16.80;99.90
18260;DHT22;9256;52.236;5.712;2023-08-20T05:31:37;16.80;99.90
18260;DHT22;9256;52.236;5.712;2023-08-20T05:34:04;16.90;99.90
18260;DHT22;9256;52.236;5.712;2023-08-20T05:36:31;17.00;99.90
18260;DHT22;9256;52.236;5.712;2023-08-20T05:38:58;17.00;99.90
18260;DHT22;9256;52.236;5.712;2023-08-20T05:41:25;17.10;99.90
18260;DHT22;9256;52.236;5.712;2023-08-20T05:43:52;17.10;99.90
18260;DHT22;9256;52.236;5.712;2023-08-20T05:46:20;17.20;99.90
18260;DHT22;9256;52.236;5.712;2023-08-20T05:48:47;17.20;99.90
18260;DHT22;9256;52.236;5.712;2023-08-20T05:51:14;17.30;99.90
18260;DHT22;9256;52.236;5.712;2023-08-20T05:53:41;17.30;99.90
18260;DHT22;9256;52.236;5.712;2023-08-20T05:56:08;17.40;99.90
18260;DHT22;9256;52.236;5.712;2023-08-20T05:58:35;17.50;99.90
18260;DHT22;9256;52.236;5.712;2023-08-20T06:01:02;17.50;99.90
18260;DHT22;9256;52.236;5.712;2023-08-20T06:03:30;17.50;99.90
18260;DHT22;9256;52.236;5.712;2023-08-20T06:05:57;17.60;99.90
18260;DHT22;9256;52.236;5.712;2023-08-20T06:08:24;17.60;99.90
18260;DHT22;9256;52.236;5.712;2023-08-20T06:10:51;17.70;99.90
18260;DHT22;9256;52.236;5.712;2023-08-20T06:13:18;17.70;99.90
18260;DHT22;9256;52.236;5.712;2023-08-20T06:15:45;17.80;99.90
18260;DHT22;9256;52.236;5.712;2023-08-20T06:18:12;17.90;99.90
18260;DHT22;9256;52.236;5.712;2023-08-20T06:20:41;18.00;99.90
18260;DHT22;9256;52.236;5.712;2023-08-20T06:23:07;18.10;99.90
18260;DHT22;9256;52.236;5.712;2023-08-20T06:25:34;18.20;99.90
18260;DHT22;9256;52.236;5.712;2023-08-20T06:28:01;18.30;99.90
18260;DHT22;9256;52.236;5.712;2023-08-20T06:30:28;18.40;99.90
18260;DHT22;9256;52.236;5.712;2023-08-20T06:32:55;18.40;99.90
18260;DHT22;9256;52.236;5.712;2023-08-20T06:35:22;18.50;99.90
18260;DHT22;9256;52.236;5.712;2023-08-20T06:37:50;18.60;99.90
18260;DHT22;9256;52.236;5.712;2023-08-20T06:40:17;18.60;99.90
18260;DHT22;9256;52.236;5.712;2023-08-20T06:42:44;18.70;99.90
18260;DHT22;9256;52.236;5.712;2023-08-20T06:45:11;18.80;99.90
18260;DHT22;9256;52.236;5.712;2023-08-20T06:47:39;18.90;99.90
18260;DHT22;9256;52.236;5.712;2023-08-20T06:50:06;19.00;99.90
18260;DHT22;9256;52.236;5.712;2023-08-20T06:52:33;19.10;99.90
18260;DHT22;9256;52.236;5.712;2023-08-20T06:55:01;19.20;99.90
18260;DHT22;9256;52.236;5.712;2023-08-20T06:57:28;19.30;99.90
18260;DHT22;9256;52.236;5.712;2023-08-20T06:59:55;19.40;99.90
18260;DHT22;9256;52.236;5.712;2023-08-20T07:02:22;19.50;99.90
18260;DHT22;9256;52.236;5.712;2023-08-20T07:04:49;19.50;99.90
18260;DHT22;9256;52.236;5.712;2023-08-20T07:07:16;19.60;99.90
18260;DHT22;9256;52.236;5.712;2023-08-20T07:09:43;19.60;99.90
18260;DHT22;9256;52.236;5.712;2023-08-20T07:12:11;19.70;99.90
18260;DHT22;9256;52.236;5.712;2023-08-20T07:14:38;19.80;99.90
18260;DHT22;9256;52.236;5.712;2023-08-20T07:17:05;19.90;99.90
18260;DHT22;9256;52.236;5.712;2023-08-20T07:19:32;20.00;99.90
18260;DHT22;9256;52.236;5.712;2023-08-20T07:21:58;20.10;99.90
18260;DHT22;9256;52.236;5.712;2023-08-20T07:24:25;20.10;99.90
18260;DHT22;9256;52.236;5.712;2023-08-20T07:26:54;20.10;99.90
18260;DHT22;9256;52.236;5.712;2023-08-20T07:29:27;20.20;99.90
18260;DHT22;9256;52.236;5.712;2023-08-20T07:31:56;20.20;99.90
18260;DHT22;9256;52.236;5.712;2023-08-20T07:34:23;20.30;99.90
18260;DHT22;9256;52.236;5.712;2023-08-20T07:36:50;20.40;99.90
18260;DHT22;9256;52.236;5.712;2023-08-20T07:39:17;20.50;99.90
18260;DHT22;9256;52.236;5.712;2023-08-20T07:41:44;20.60;99.90
18260;DHT22;9256;52.236;5.712;2023-08-20T07:44:11;20.70;99.90
18260;DHT22;9256;52.236;5.712;2023-08-20T07:46:39;20.80;99.90
18260;DHT22;9256;52.236;5.712;2023-08-20T07:49:06;21.00;99.90
18260;DHT22;9256;52.236;5.712;2023-08-20T07:51:34;21.00;99.90
18260;DHT22;9256;52.236;5.712;2023-08-20T07:54:01;21.00;99.90
18260;DHT22;9256;52.236;5.712;2023-08-20T07:56:27;21.00;99.90
18260;DHT22;9256;52.236;5.712;2023-08-20T07:58:54;21.10;99.90
18260;DHT22;9256;52.236;5.712;2023-08-20T08:01:21;21.10;99.90
18260;DHT22;9256;52.236;5.712;2023-08-20T08:03:50;21.10;99.90
18260;DHT22;9256;52.236;5.712;2023-08-20T08:06:17;21.10;99.90
18260;DHT22;9256;52.236;5.712;2023-08-20T08:08:44;21.30;99.90
18260;DHT22;9256;52.236;5.712;2023-08-20T08:11:11;21.50;99.90
18260;DHT22;9256;52.236;5.712;2023-08-20T08:13:38;21.70;99.90
18260;DHT22;9256;52.236;5.712;2023-08-20T08:16:05;21.90;99.90
18260;DHT22;9256;52.236;5.712;2023-08-20T08:18:31;22.00;99.90
18260;DHT22;9256;52.236;5.712;2023-08-20T08:21:00;22.20;99.90
18260;DHT22;9256;52.236;5.712;2023-08-20T08:23:27;22.20;99.90
18260;DHT22;9256;52.236;5.712;2023-08-20T08:25:54;22.30;99.90
18260;DHT22;9256;52.236;5.712;2023-08-20T08:28:21;22.30;99.90
18260;DHT22;9256;52.236;5.712;2023-08-20T08:30:48;22.40;99.90
18260;DHT22;9256;52.236;5.712;2023-08-20T08:33:15;22.40;99.90
18260;DHT22;9256;52.236;5.712;2023-08-20T08:35:42;22.50;99.90
18260;DHT22;9256;52.236;5.712;2023-08-20T08:38:10;22.60;99.90
18260;DHT22;9256;52.236;5.712;2023-08-20T08:40:40;22.70;99.90
18260;DHT22;9256;52.236;5.712;2023-08-20T08:43:07;22.70;99.90
18260;DHT22;9256;52.236;5.712;2023-08-20T08:45:42;22.90;99.90
18260;DHT22;9256;52.236;5.712;2023-08-20T08:48:12;23.00;99.90
18260;DHT22;9256;52.236;5.712;2023-08-20T08:50:39;23.10;99.90
18260;DHT22;9256;52.236;5.712;2023-08-20T08:53:07;23.20;99.90
18260;DHT22;9256;52.236;5.712;2023-08-20T08:55:36;23.20;99.90
18260;DHT22;9256;52.236;5.712;2023-08-20T08:58:03;23.40;99.90
18260;DHT22;9256;52.236;5.712;2023-08-20T09:00:30;23.50;99.90
18260;DHT22;9256;52.236;5.712;2023-08-20T09:02:58;23.50;99.90
18260;DHT22;9256;52.236;5.712;2023-08-20T09:05:25;23.40;99.90
18260;DHT22;9256;52.236;5.712;2023-08-20T09:07:55;23.50;99.90
18260;DHT22;9256;52.236;5.712;2023-08-20T09:10:25;23.50;99.90
18260;DHT22;9256;52.236;5.712;2023-08-20T09:12:54;23.70;99.90
18260;DHT22;9256;52.236;5.712;2023-08-20T09:15:22;23.60;99.90
18260;DHT22;9256;52.236;5.712;2023-08-20T09:17:56;23.60;99.90
18260;DHT22;9256;52.236;5.712;2023-08-20T09:20:34;23.70;99.90
18260;DHT22;9256;52.236;5.712;2023-08-20T09:23:01;23.70;99.90
18260;DHT22;9256;52.236;5.712;2023-08-20T09:25:28;23.80;99.90
18260;DHT22;9256;52.236;5.712;2023-08-20T09:27:56;23.70;99.90
18260;DHT22;9256;52.236;5.712;2023-08-20T09:30:23;23.90;99.90
18260;DHT22;9256;52.236;5.712;2023-08-20T09:33:03;23.90;99.90
18260;DHT22;9256;52.236;5.712;2023-08-20T09:35:30;24.00;99.90
18260;DHT22;9256;52.236;5.712;2023-08-20T09:38:00;24.20;99.90
18260;DHT22;9256;52.236;5.712;2023-08-20T09:40:27;24.00;99.90
18260;DHT22;9256;52.236;5.712;2023-08-20T09:42:57;24.20;99.90
18260;DHT22;9256;52.236;5.712;2023-08-20T09:45:24;24.50;99.90
18260;DHT22;9256;52.236;5.712;2023-08-20T09:47:55;24.40;99.90
18260;DHT22;9256;52.236;5.712;2023-08-20T09:50:22;24.50;99.90
18260;DHT22;9256;52.236;5.712;2023-08-20T09:52:56;24.70;99.90
18260;DHT22;9256;52.236;5.712;2023-08-20T09:55:28;24.70;99.90
18260;DHT22;9256;52.236;5.712;2023-08-20T09:57:58;24.80;99.90
18260;DHT22;9256;52.236;5.712;2023-08-20T10:00:26;24.90;99.90
18260;DHT22;9256;52.236;5.712;2023-08-20T10:02:54;24.80;99.90
18260;DHT22;9256;52.236;5.712;2023-08-20T10:05:23;24.80;99.90
18260;DHT22;9256;52.236;5.712;2023-08-20T10:07:50;24.90;99.90
18260;DHT22;9256;52.236;5.712;2023-08-20T10:10:18;24.70;99.90
18260;DHT22;9256;52.236;5.712;2023-08-20T10:12:47;24.80;99.90
18260;DHT22;9256;52.236;5.712;2023-08-20T10:15:15;25.10;99.90
18260;DHT22;9256;52.236;5.712;2023-08-20T10:17:44;25.30;99.90
18260;DHT22;9256;52.236;5.712;2023-08-20T10:20:14;25.50;99.90
18260;DHT22;9256;52.236;5.712;2023-08-20T10:22:42;25.50;99.90
18260;DHT22;9256;52.236;5.712;2023-08-20T10:25:11;25.60;99.90
18260;DHT22;9256;52.236;5.712;2023-08-20T10:27:41;25.60;99.90
18260;DHT22;9256;52.236;5.712;2023-08-20T10:30:09;25.80;99.90
18260;DHT22;9256;52.236;5.712;2023-08-20T10:32:47;26.10;99.90
18260;DHT22;9256;52.236;5.712;2023-08-20T10:35:23;25.80;99.90
18260;DHT22;9256;52.236;5.712;2023-08-20T10:38:06;26.00;99.90
18260;DHT22;9256;52.236;5.712;2023-08-20T10:40:53;26.10;99.90
18260;DHT22;9256;52.236;5.712;2023-08-20T10:43:30;25.50;99.90
18260;DHT22;9256;52.236;5.712;2023-08-20T10:46:10;25.20;99.90
18260;DHT22;9256;52.236;5.712;2023-08-20T10:48:41;25.00;99.90
18260;DHT22;9256;52.236;5.712;2023-08-20T10:51:13;25.20;99.90
18260;DHT22;9256;52.236;5.712;2023-08-20T10:53:42;25.30;99.90
18260;DHT22;9256;52.236;5.712;2023-08-20T10:56:11;25.60;99.90
18260;DHT22;9256;52.236;5.712;2023-08-20T10:58:42;25.60;99.90
18260;DHT22;9256;52.236;5.712;2023-08-20T11:01:16;25.80;99.90
18260;DHT22;9256;52.236;5.712;2023-08-20T11:03:46;25.80;99.90
18260;DHT22;9256;52.236;5.712;2023-08-20T11:06:15;26.20;99.90
18260;DHT22;9256;52.236;5.712;2023-08-20T11:08:43;25.80;99.90
18260;DHT22;9256;52.236;5.712;2023-08-20T11:11:10;25.70;99.90
18260;DHT22;9256;52.236;5.712;2023-08-20T11:13:38;25.60;99.90
18260;DHT22;9256;52.236;5.712;2023-08-20T11:16:06;25.30;99.90
18260;DHT22;9256;52.236;5.712;2023-08-20T11:18:34;24.80;99.90
18260;DHT22;9256;52.236;5.712;2023-08-20T11:21:02;24.90;99.90
18260;DHT22;9256;52.236;5.712;2023-08-20T11:23:30;24.90;99.90
18260;DHT22;9256;52.236;5.712;2023-08-20T11:25:57;25.10;99.90
18260;DHT22;9256;52.236;5.712;2023-08-20T11:28:28;25.60;99.90
18260;DHT22;9256;52.236;5.712;2023-08-20T11:30:55;25.90;99.90
18260;DHT22;9256;52.236;5.712;2023-08-20T11:33:23;26.10;99.90
18260;DHT22;9256;52.236;5.712;2023-08-20T11:35:52;26.30;99.90
18260;DHT22;9256;52.236;5.712;2023-08-20T11:38:22;26.40;99.90
18260;DHT22;9256;52.236;5.712;2023-08-20T11:40:50;26.50;99.90
18260;DHT22;9256;52.236;5.712;2023-08-20T11:43:17;26.50;99.90
18260;DHT22;9256;52.236;5.712;2023-08-20T11:45:45;26.70;99.90
18260;DHT22;9256;52.236;5.712;2023-08-20T11:48:12;26.70;99.90
18260;DHT22;9256;52.236;5.712;2023-08-20T11:50:40;26.80;99.90
18260;DHT22;9256;52.236;5.712;2023-08-20T11:53:08;26.40;99.90
18260;DHT22;9256;52.236;5.712;2023-08-20T11:55:38;26.20;99.90
18260;DHT22;9256;52.236;5.712;2023-08-20T11:58:05;25.90;99.90
18260;DHT22;9256;52.236;5.712;2023-08-20T12:00:33;25.80;99.90
18260;DHT22;9256;52.236;5.712;2023-08-20T12:03:01;25.80;99.90
18260;DHT22;9256;52.236;5.712;2023-08-20T12:05:29;25.90;99.90
18260;DHT22;9256;52.236;5.712;2023-08-20T12:07:57;26.00;99.90
18260;DHT22;9256;52.236;5.712;2023-08-20T12:10:25;26.20;99.90
18260;DHT22;9256;52.236;5.712;2023-08-20T12:12:54;26.20;99.90
18260;DHT22;9256;52.236;5.712;2023-08-20T12:15:22;26.10;99.90
18260;DHT22;9256;52.236;5.712;2023-08-20T12:17:56;26.80;99.90
18260;DHT22;9256;52.236;5.712;2023-08-20T12:20:23;26.50;99.90
18260;DHT22;9256;52.236;5.712;2023-08-20T12:22:50;27.20;99.90
18260;DHT22;9256;52.236;5.712;2023-08-20T12:25:16;27.60;99.90
18260;DHT22;9256;52.236;5.712;2023-08-20T12:27:43;27.60;99.90
18260;DHT22;9256;52.236;5.712;2023-08-20T12:30:13;27.30;99.90
18260;DHT22;9256;52.236;5.712;2023-08-20T12:32:39;27.20;99.90
18260;DHT22;9256;52.236;5.712;2023-08-20T12:35:07;27.20;99.90
18260;DHT22;9256;52.236;5.712;2023-08-20T12:37:34;27.30;99.90
18260;DHT22;9256;52.236;5.712;2023-08-20T12:40:01;27.40;99.90
18260;DHT22;9256;52.236;5.712;2023-08-20T12:42:32;27.50;99.90
18260;DHT22;9256;52.236;5.712;2023-08-20T12:44:59;27.40;99.90
18260;DHT22;9256;52.236;5.712;2023-08-20T12:47:28;27.10;99.90
18260;DHT22;9256;52.236;5.712;2023-08-20T12:49:55;26.60;99.90
18260;DHT22;9256;52.236;5.712;2023-08-20T12:52:22;26.40;99.90
18260;DHT22;9256;52.236;5.712;2023-08-20T12:54:48;25.70;99.90
18260;DHT22;9256;52.236;5.712;2023-08-20T12:57:15;25.80;99.90
18260;DHT22;9256;52.236;5.712;2023-08-20T12:59:42;26.10;99.90
18260;DHT22;9256;52.236;5.712;2023-08-20T13:02:10;26.80;99.90
18260;DHT22;9256;52.236;5.712;2023-08-20T13:04:39;27.70;99.90
18260;DHT22;9256;52.236;5.712;2023-08-20T13:07:07;27.50;99.90
18260;DHT22;9256;52.236;5.712;2023-08-20T13:09:35;27.40;99.90
18260;DHT22;9256;52.236;5.712;2023-08-20T13:12:02;28.00;99.90
18260;DHT22;9256;52.236;5.712;2023-08-20T13:14:31;28.00;99.90
18260;DHT22;9256;52.236;5.712;2023-08-20T13:16:59;27.90;99.90
18260;DHT22;9256;52.236;5.712;2023-08-20T13:19:26;28.40;99.90
18260;DHT22;9256;52.236;5.712;2023-08-20T13:21:54;29.30;99.90
18260;DHT22;9256;52.236;5.712;2023-08-20T13:24:21;28.90;99.90
18260;DHT22;9256;52.236;5.712;2023-08-20T13:26:48;29.20;99.90
18260;DHT22;9256;52.236;5.712;2023-08-20T13:29:15;29.70;99.90
18260;DHT22;9256;52.236;5.712;2023-08-20T13:31:42;30.10;99.90
18260;DHT22;9256;52.236;5.712;2023-08-20T13:34:09;30.60;99.90
18260;DHT22;9256;52.236;5.712;2023-08-20T13:36:36;29.70;99.90
18260;DHT22;9256;52.236;5.712;2023-08-20T13:39:04;28.80;99.90
18260;DHT22;9256;52.236;5.712;2023-08-20T13:41:32;28.60;99.90
18260;DHT22;9256;52.236;5.712;2023-08-20T13:43:59;29.80;99.90
18260;DHT22;9256;52.236;5.712;2023-08-20T13:46:26;30.20;99.90
18260;DHT22;9256;52.236;5.712;2023-08-20T13:48:54;30.30;99.90
18260;DHT22;9256;52.236;5.712;2023-08-20T13:51:20;30.30;99.90
18260;DHT22;9256;52.236;5.712;2023-08-20T13:53:47;30.20;99.90
18260;DHT22;9256;52.236;5.712;2023-08-20T13:56:16;30.60;99.90
18260;DHT22;9256;52.236;5.712;2023-08-20T13:58:43;31.10;99.90
18260;DHT22;9256;52.236;5.712;2023-08-20T14:01:10;30.90;99.90
18260;DHT22;9256;52.236;5.712;2023-08-20T14:03:37;30.60;99.90
18260;DHT22;9256;52.236;5.712;2023-08-20T14:06:04;31.10;99.90
18260;DHT22;9256;52.236;5.712;2023-08-20T14:08:31;31.10;99.90
18260;DHT22;9256;52.236;5.712;2023-08-20T14:10:58;31.70;99.90
18260;DHT22;9256;52.236;5.712;2023-08-20T14:13:27;31.40;99.90
18260;DHT22;9256;52.236;5.712;2023-08-20T14:15:53;31.70;99.90
18260;DHT22;9256;52.236;5.712;2023-08-20T14:18:20;31.50;99.90
18260;DHT22;9256;52.236;5.712;2023-08-20T14:20:47;30.90;99.90
18260;DHT22;9256;52.236;5.712;2023-08-20T14:23:14;29.60;99.90
18260;DHT22;9256;52.236;5.712;2023-08-20T14:25:41;28.40;99.90
18260;DHT22;9256;52.236;5.712;2023-08-20T14:28:08;27.50;99.90
18260;DHT22;9256;52.236;5.712;2023-08-20T14:30:37;27.30;99.90
18260;DHT22;9256;52.236;5.712;2023-08-20T14:33:05;27.30;99.90
18260;DHT22;9256;52.236;5.712;2023-08-20T14:35:32;26.80;99.90
18260;DHT22;9256;52.236;5.712;2023-08-20T14:37:59;26.90;99.90
18260;DHT22;9256;52.236;5.712;2023-08-20T14:40:26;26.80;99.90
18260;DHT22;9256;52.236;5.712;2023-08-20T14:42:53;26.80;99.90
18260;DHT22;9256;52.236;5.712;2023-08-20T14:45:20;26.50;99.90
18260;DHT22;9256;52.236;5.712;2023-08-20T14:47:48;26.30;99.90
18260;DHT22;9256;52.236;5.712;2023-08-20T14:50:15;26.40;99.90
18260;DHT22;9256;52.236;5.712;2023-08-20T14:52:42;26.40;99.90
18260;DHT22;9256;52.236;5.712;2023-08-20T14:55:09;26.40;99.90
18260;DHT22;9256;52.236;5.712;2023-08-20T14:57:36;26.40;99.90
18260;DHT22;9256;52.236;5.712;2023-08-20T15:00:05;26.30;99.90
18260;DHT22;9256;52.236;5.712;2023-08-20T15:02:35;26.00;99.90
18260;DHT22;9256;52.236;5.712;2023-08-20T15:05:03;25.90;99.90
18260;DHT22;9256;52.236;5.712;2023-08-20T15:07:31;26.00;99.90
18260;DHT22;9256;52.236;5.712;2023-08-20T15:09:58;25.90;99.90
18260;DHT22;9256;52.236;5.712;2023-08-20T15:12:24;25.90;99.90
18260;DHT22;9256;52.236;5.712;2023-08-20T15:14:51;26.10;99.90
18260;DHT22;9256;52.236;5.712;2023-08-20T15:17:18;26.40;99.90
18260;DHT22;9256;52.236;5.712;2023-08-20T15:19:46;26.50;99.90
18260;DHT22;9256;52.236;5.712;2023-08-20T15:22:14;26.60;99.90
18260;DHT22;9256;52.236;5.712;2023-08-20T15:24:42;26.40;99.90
18260;DHT22;9256;52.236;5.712;2023-08-20T15:27:09;26.10;99.90
18260;DHT22;9256;52.236;5.712;2023-08-20T15:29:36;26.10;99.90
18260;DHT22;9256;52.236;5.712;2023-08-20T15:32:04;26.10;99.90
18260;DHT22;9256;52.236;5.712;2023-08-20T15:34:31;26.20;99.90
18260;DHT22;9256;52.236;5.712;2023-08-20T15:36:58;26.40;99.90
18260;DHT22;9256;52.236;5.712;2023-08-20T15:39:26;26.20;99.90
18260;DHT22;9256;52.236;5.712;2023-08-20T15:41:53;26.10;99.90
18260;DHT22;9256;52.236;5.712;2023-08-20T15:44:20;26.10;99.90
18260;DHT22;9256;52.236;5.712;2023-08-20T15:46:47;26.00;99.90
18260;DHT22;9256;52.236;5.712;2023-08-20T15:49:14;26.00;99.90